Riverside Park, Nebraska
Current Conditions -  °F | °C
As of 12:15 PM on Thursday 23 Oct 2014 (Local Time) from KAUH Reporting Station
Clear Clear  
Wind Chill: 58°   Ceiling: Unl
Heat Index: 58°   Visibility: 10mi
Dew Point: 58°   Wind: 6mph
Humidity: 100%   Direction: 210°SSW
Pressure: 30.1"   Gusts: NA
Location:  41.1764°N, 98.0095°W
Report Text: KAUH 231715Z AUTO 21005KT 10SM CLR 15/15 A3010 RMK AO2 T01460146
Loading
Personal Weather Stations






























Interactive Weather Map
Tropical Storm Tracking
New forecast layout! Learn more

10-Day Weather Forecast

Advertisements
Track Severe Weather on mobile